createdAt,value
2016-06-02T00:00:05.079Z,79.3
2016-06-02T00:00:14.766Z,79.5
2016-06-02T00:00:24.907Z,78.9
2016-06-02T00:00:34.926Z,79
2016-06-02T00:00:44.926Z,79.8
2016-06-02T00:00:55.066Z,79.4
2016-06-02T00:01:04.910Z,79.6
2016-06-02T00:01:14.910Z,79.7
2016-06-02T00:01:25.051Z,79.7
2016-06-02T00:01:35.054Z,79.4
2016-06-02T00:01:45.069Z,79.7
2016-06-02T00:01:54.897Z,79
2016-06-02T00:02:05.038Z,79
2016-06-02T00:02:14.897Z,79.1
2016-06-02T00:02:24.897Z,79.6
2016-06-02T00:02:35.041Z,79.8
2016-06-02T00:02:44.744Z,79.6
2016-06-02T00:02:55.041Z,79.1
2016-06-02T00:03:05.088Z,79.3
2016-06-02T00:03:15.025Z,79.1
2016-06-02T00:03:25.041Z,79.4
2016-06-02T00:03:34.715Z,79.8
2016-06-02T00:03:45.012Z,79.2
2016-06-02T00:03:55.184Z,79.5
2016-06-02T00:04:04.762Z,79.4
2016-06-02T00:04:15.059Z,79.4
2016-06-02T00:04:24.856Z,79
2016-06-02T00:04:35.015Z,79
2016-06-02T00:04:44.843Z,79.1
2016-06-02T00:04:54.859Z,79.1
2016-06-02T00:05:05.015Z,78.9
2016-06-02T00:05:14.999Z,79
2016-06-02T00:05:24.999Z,79
2016-06-02T00:05:35.001Z,79
2016-06-02T00:05:45.001Z,78.9
2016-06-02T00:05:55.001Z,78.9
2016-06-02T00:06:04.986Z,78.9
2016-06-02T00:06:14.970Z,78.8
2016-06-02T00:06:24.986Z,79.2
2016-06-02T00:06:35.004Z,79.1
2016-06-02T00:06:44.832Z,78.7
2016-06-02T00:06:54.973Z,79.2
2016-06-02T00:07:04.848Z,79.6
2016-06-02T00:07:14.989Z,79.4
2016-06-02T00:07:24.817Z,79.8
2016-06-02T00:07:34.960Z,80.1
2016-06-02T00:07:44.976Z,79.4
2016-06-02T00:07:55.054Z,79.9
2016-06-02T00:08:04.976Z,79.4
2016-06-02T00:08:14.804Z,79.6
2016-06-02T00:08:24.960Z,79.6
2016-06-02T00:08:35.026Z,79.6
2016-06-02T00:08:44.791Z,79.6
2016-06-02T00:08:54.963Z,79.4
2016-06-02T00:09:04.651Z,79.6
2016-06-02T00:09:14.963Z,79.4
2016-06-02T00:09:25.385Z,79.5
2016-06-02T00:09:35.623Z,79.5
2016-06-02T00:09:45.763Z,79.3
2016-06-02T00:09:54.982Z,79.5
2016-06-02T00:10:04.794Z,79.7
2016-06-02T00:10:15.341Z,79.5
2016-06-02T00:10:25.873Z,79.3
2016-06-02T00:10:35.156Z,79.7
2016-06-02T00:10:44.937Z,79.3
2016-06-02T00:10:54.921Z,79.5
2016-06-02T00:11:04.921Z,79.5
2016-06-02T00:11:14.968Z,79.4
2016-06-02T00:11:24.656Z,79.8
2016-06-02T00:11:34.923Z,79.8
2016-06-02T00:11:44.908Z,79.8
2016-06-02T00:11:54.830Z,79.6
2016-06-02T00:12:04.939Z,79
2016-06-02T00:12:14.767Z,78.9
2016-06-02T00:12:24.736Z,78.9
2016-06-02T00:12:34.927Z,79
2016-06-02T00:12:44.896Z,78.8
2016-06-02T00:12:54.896Z,78.8
2016-06-02T00:13:04.896Z,78.9
2016-06-02T00:13:14.959Z,78.9
2016-06-02T00:13:24.927Z,78.9
2016-06-02T00:13:34.883Z,79.2
2016-06-02T00:13:44.726Z,78.8
2016-06-02T00:13:54.883Z,79
2016-06-02T00:14:04.867Z,78.9
2016-06-02T00:14:14.898Z,79
2016-06-02T00:14:24.758Z,79
2016-06-02T00:14:34.729Z,78.9
2016-06-02T00:14:44.854Z,79.2
2016-06-02T00:14:54.886Z,79
2016-06-02T00:15:04.870Z,79.1
2016-06-02T00:15:14.948Z,78.8
2016-06-02T00:15:24.870Z,78.9
2016-06-02T00:15:34.872Z,78.8
2016-06-02T00:15:44.856Z,78.9
2016-06-02T00:15:54.872Z,78.9
2016-06-02T00:16:04.841Z,79
2016-06-02T00:16:14.856Z,79
2016-06-02T00:16:24.684Z,78.9
2016-06-02T00:16:34.750Z,78.8
2016-06-02T00:16:44.844Z,79.2
2016-06-02T00:16:54.844Z,78.9
2016-06-02T00:17:04.828Z,79.1
2016-06-02T00:17:14.859Z,79.6
2016-06-02T00:17:24.828Z,79.4
2016-06-02T00:17:34.831Z,79.5
2016-06-02T00:17:44.831Z,79.4
2016-06-02T00:17:54.862Z,79
2016-06-02T00:18:04.831Z,79
2016-06-02T00:18:14.690Z,79.2
2016-06-02T00:18:24.831Z,79
2016-06-02T00:18:34.881Z,78.9
2016-06-02T00:18:44.678Z,78.9
2016-06-02T00:18:54.693Z,78.9
2016-06-02T00:19:04.818Z,78.8
2016-06-02T00:19:14.881Z,79
2016-06-02T00:19:24.818Z,78.7
2016-06-02T00:19:34.852Z,78.9
2016-06-02T00:19:44.820Z,78.9
2016-06-02T00:19:55.789Z,79
2016-06-02T00:20:04.789Z,78.8
2016-06-02T00:20:14.852Z,78.9
2016-06-02T00:20:24.820Z,79.1
2016-06-02T00:20:34.667Z,78.7
2016-06-02T00:20:44.792Z,79
2016-06-02T00:20:54.714Z,78.9
2016-06-02T00:21:04.808Z,79.2
2016-06-02T00:21:14.792Z,79.1
2016-06-02T00:21:24.792Z,79.3
2016-06-02T00:21:34.858Z,79.4
2016-06-02T00:21:44.795Z,79.4
2016-06-02T00:21:54.655Z,79.3
2016-06-02T00:22:04.780Z,79.4
2016-06-02T00:22:14.764Z,79.5
2016-06-02T00:22:24.623Z,80
2016-06-02T00:22:34.610Z,80
2016-06-02T00:22:44.766Z,79.5
2016-06-02T00:22:54.844Z,80.1
2016-06-02T00:23:04.625Z,79.9
2016-06-02T00:23:14.813Z,79.6
2016-06-02T00:23:24.735Z,79.3
2016-06-02T00:23:34.660Z,80.2
2016-06-02T00:23:44.753Z,79.5
2016-06-02T00:23:54.660Z,79.5
2016-06-02T00:24:04.738Z,79.6
2016-06-02T00:24:14.831Z,79.8
2016-06-02T00:24:24.894Z,79
2016-06-02T00:24:34.866Z,79
2016-06-02T00:24:45.194Z,78.8
2016-06-02T00:24:54.709Z,78.9
2016-06-02T00:25:05.022Z,78.9
2016-06-02T00:25:15.303Z,79
2016-06-02T00:25:24.975Z,78.9
2016-06-02T00:25:34.883Z,79
2016-06-02T00:25:44.727Z,79.2
2016-06-02T00:25:54.805Z,79
2016-06-02T00:26:04.696Z,79.2
2016-06-02T00:26:14.586Z,79.2
2016-06-02T00:26:24.555Z,79.1
2016-06-02T00:26:34.714Z,79.1
2016-06-02T00:26:44.558Z,79
2016-06-02T00:26:54.730Z,79.1
2016-06-02T00:27:04.714Z,79
2016-06-02T00:27:14.402Z,79.1
2016-06-02T00:27:24.699Z,78.9
2016-06-02T00:27:34.733Z,78.8
2016-06-02T00:27:44.686Z,78.9
2016-06-02T00:27:54.702Z,79.4
2016-06-02T00:28:04.686Z,78.8
2016-06-02T00:28:14.733Z,79
2016-06-02T00:28:24.546Z,79.2
2016-06-02T00:28:34.548Z,79.1
2016-06-02T00:28:44.688Z,78.8
2016-06-02T00:28:54.532Z,79
2016-06-02T00:29:04.704Z,79.2
2016-06-02T00:29:14.673Z,79
2016-06-02T00:29:24.501Z,79
2016-06-02T00:29:34.739Z,79.1
2016-06-02T00:29:44.677Z,79.1
2016-06-02T00:29:54.677Z,79.1
2016-06-02T00:30:04.677Z,79
2016-06-02T00:30:14.739Z,78.7
2016-06-02T00:30:24.677Z,79
2016-06-02T00:30:34.663Z,79.1
2016-06-02T00:30:44.679Z,79.1
2016-06-02T00:30:54.694Z,78.8
2016-06-02T00:31:04.679Z,79
2016-06-02T00:31:14.679Z,78.9
2016-06-02T00:31:24.647Z,79
2016-06-02T00:31:34.681Z,78.7
2016-06-02T00:31:44.524Z,79
2016-06-02T00:31:54.649Z,78.7
2016-06-02T00:32:04.665Z,78.7
2016-06-02T00:32:14.681Z,78.9
2016-06-02T00:32:24.477Z,79.1
2016-06-02T00:32:34.652Z,79
2016-06-02T00:32:44.465Z,78.9
2016-06-02T00:32:54.621Z,79.2
2016-06-02T00:33:04.480Z,78.9
2016-06-02T00:33:14.621Z,79.2
2016-06-02T00:33:24.652Z,79
2016-06-02T00:33:34.640Z,78.8
2016-06-02T00:33:44.624Z,78.9
2016-06-02T00:33:54.499Z,79
2016-06-02T00:34:04.468Z,79
2016-06-02T00:34:14.624Z,79.1
2016-06-02T00:34:24.608Z,79.4
2016-06-02T00:34:34.611Z,79.7
2016-06-02T00:34:44.596Z,79.8
2016-06-02T00:34:54.705Z,79.2
2016-06-02T00:35:04.596Z,79.6
2016-06-02T00:35:14.596Z,79.8
2016-06-02T00:35:24.596Z,79.6
2016-06-02T00:35:34.598Z,79.8
2016-06-02T00:35:44.582Z,79.6
2016-06-02T00:35:54.582Z,79.3
2016-06-02T00:36:04.582Z,79.2
2016-06-02T00:36:14.442Z,78.8
2016-06-02T00:36:24.410Z,78.8
2016-06-02T00:36:34.570Z,78.9
2016-06-02T00:36:44.570Z,78.8
2016-06-02T00:36:54.570Z,79
2016-06-02T00:37:04.570Z,79.2
2016-06-02T00:37:14.570Z,79.1
2016-06-02T00:37:24.554Z,78.9
2016-06-02T00:37:34.588Z,79.1
2016-06-02T00:37:44.557Z,78.8
2016-06-02T00:37:54.416Z,78.8
2016-06-02T00:38:04.557Z,79
2016-06-02T00:38:14.432Z,79
2016-06-02T00:38:24.416Z,78.9
2016-06-02T00:38:34.544Z,78.8
2016-06-02T00:38:44.529Z,79
2016-06-02T00:38:54.404Z,79
2016-06-02T00:39:04.591Z,79.3
2016-06-02T00:39:14.326Z,79
2016-06-02T00:39:25.169Z,79
2016-06-02T00:39:34.406Z,79.2
2016-06-02T00:39:45.578Z,79
2016-06-02T00:39:54.687Z,78.7
2016-06-02T00:40:04.781Z,79.1
2016-06-02T00:40:14.234Z,79
2016-06-02T00:40:24.374Z,79.1
2016-06-02T00:40:34.502Z,79
2016-06-02T00:40:44.440Z,79.1
2016-06-02T00:40:54.424Z,78.9
2016-06-02T00:41:04.362Z,79.1
2016-06-02T00:41:14.502Z,78.9
2016-06-02T00:41:24.502Z,79.2
2016-06-02T00:41:34.504Z,79.3
2016-06-02T00:41:44.348Z,79.1
2016-06-02T00:41:54.489Z,78.9
2016-06-02T00:42:04.473Z,79.1
2016-06-02T00:42:14.504Z,79.2
2016-06-02T00:42:24.489Z,79.2
2016-06-02T00:42:34.507Z,79.2
2016-06-02T00:42:44.492Z,79
2016-06-02T00:42:54.336Z,79.2
2016-06-02T00:43:04.476Z,79.2
2016-06-02T00:43:14.476Z,79
2016-06-02T00:43:24.476Z,78.8
2016-06-02T00:43:34.495Z,79.1
2016-06-02T00:43:44.510Z,78.9
2016-06-02T00:43:54.323Z,78.9
2016-06-02T00:44:04.464Z,78.7
2016-06-02T00:44:14.479Z,78.7
2016-06-02T00:44:24.557Z,78.5
2016-06-02T00:44:34.467Z,78.3
2016-06-02T00:44:44.310Z,78.4
2016-06-02T00:44:54.513Z,78.6
2016-06-02T00:45:04.529Z,78.4
2016-06-02T00:45:14.451Z,78.8
2016-06-02T00:45:24.310Z,78.7
2016-06-02T00:45:34.515Z,78.3
2016-06-02T00:45:44.515Z,78.2
2016-06-02T00:45:54.437Z,78.1
2016-06-02T00:46:04.437Z,78.5
2016-06-02T00:46:14.422Z,78
2016-06-02T00:46:24.547Z,77.9
2016-06-02T00:46:34.284Z,77.8
2016-06-02T00:46:44.300Z,78
2016-06-02T00:46:54.472Z,77.7
2016-06-02T00:47:04.440Z,78
2016-06-02T00:47:14.409Z,77.9
2016-06-02T00:47:24.440Z,77.9
2016-06-02T00:47:34.412Z,77.8
2016-06-02T00:47:44.271Z,78.1
2016-06-02T00:47:54.412Z,78.1
2016-06-02T00:48:04.271Z,78.2
2016-06-02T00:48:14.459Z,78
2016-06-02T00:48:24.475Z,78.1
2016-06-02T00:48:34.414Z,77.8
2016-06-02T00:48:44.414Z,78.3
2016-06-02T00:48:54.430Z,78.2
2016-06-02T00:49:04.477Z,78.1
2016-06-02T00:49:14.398Z,78
2016-06-02T00:49:24.383Z,78.4
2016-06-02T00:49:34.433Z,78.2
2016-06-02T00:49:44.480Z,78
2016-06-02T00:49:54.370Z,78.1
2016-06-02T00:50:04.386Z,78
2016-06-02T00:50:14.370Z,78.3
2016-06-02T00:50:24.230Z,78.1
2016-06-02T00:50:34.123Z,78
2016-06-02T00:50:44.217Z,78
2016-06-02T00:50:54.389Z,78
2016-06-02T00:51:04.373Z,78.2
2016-06-02T00:51:14.217Z,78.1
2016-06-02T00:51:24.358Z,78.1
2016-06-02T00:51:34.361Z,78
2016-06-02T00:51:44.220Z,78
2016-06-02T00:51:54.251Z,77.8
2016-06-02T00:52:04.204Z,78
2016-06-02T00:52:14.345Z,78
2016-06-02T00:52:24.361Z,78
2016-06-02T00:52:34.363Z,78.3
2016-06-02T00:52:44.331Z,78.6
2016-06-02T00:52:54.347Z,78.5
2016-06-02T00:53:04.347Z,78.2
2016-06-02T00:53:14.191Z,78.2
2016-06-02T00:53:24.316Z,78.6
2016-06-02T00:53:34.194Z,78.7
2016-06-02T00:53:44.319Z,78.5
2016-06-02T00:53:54.319Z,78.5
2016-06-02T00:54:04.178Z,78.4
2016-06-02T00:54:14.303Z,78.7
2016-06-02T00:54:24.022Z,78.5
2016-06-02T00:54:34.197Z,78.7
2016-06-02T00:54:45.087Z,78.4
2016-06-02T00:54:54.759Z,78.3
2016-06-02T00:55:04.415Z,78.3
2016-06-02T00:55:15.056Z,78.3
2016-06-02T00:55:24.415Z,78.2
2016-06-02T00:55:34.355Z,78
2016-06-02T00:55:44.324Z,78.2
2016-06-02T00:55:54.136Z,78.4
2016-06-02T00:56:04.292Z,78
2016-06-02T00:56:14.308Z,78.1
2016-06-02T00:56:24.292Z,78.2
2016-06-02T00:56:34.280Z,77.9
2016-06-02T00:56:44.139Z,77.8
2016-06-02T00:56:54.155Z,78.1
2016-06-02T00:57:04.342Z,78.1
2016-06-02T00:57:14.280Z,77.8
2016-06-02T00:57:24.124Z,77.9
2016-06-02T00:57:34.157Z,78.4
2016-06-02T00:57:44.172Z,78.4
2016-06-02T00:57:54.266Z,78.2
2016-06-02T00:58:04.282Z,78
2016-06-02T00:58:14.266Z,78
2016-06-02T00:58:24.110Z,78
2016-06-02T00:58:34.254Z,78
2016-06-02T00:58:44.113Z,77.9
2016-06-02T00:58:54.160Z,78.1
2016-06-02T00:59:04.254Z,77.9
2016-06-02T00:59:14.129Z,77.9
2016-06-02T00:59:24.254Z,77.8
2016-06-02T00:59:34.241Z,78.1
2016-06-02T00:59:44.257Z,78
2016-06-02T00:59:54.241Z,78
2016-06-02T01:00:03.928Z,78
2016-06-02T01:00:14.303Z,78.1
2016-06-02T01:00:24.241Z,78
2016-06-02T01:00:34.228Z,77.8
2016-06-02T01:00:43.963Z,78.1
2016-06-02T01:00:54.103Z,78.3
2016-06-02T01:01:04.228Z,78.5
2016-06-02T01:01:14.213Z,78.3
2016-06-02T01:01:24.525Z,78
2016-06-02T01:01:34.215Z,77.9
2016-06-02T01:01:44.340Z,78
2016-06-02T01:01:54.230Z,78.2
2016-06-02T01:02:04.058Z,78.1
2016-06-02T01:02:14.215Z,77.8
2016-06-02T01:02:24.215Z,78.1
2016-06-02T01:02:34.202Z,78.2
2016-06-02T01:02:44.061Z,78.3
2016-06-02T01:02:54.202Z,78.5
2016-06-02T01:03:04.218Z,78
2016-06-02T01:03:14.202Z,78
2016-06-02T01:03:24.202Z,78.3
2016-06-02T01:03:34.189Z,78.1
2016-06-02T01:03:44.205Z,78.1
2016-06-02T01:03:54.205Z,78.1
2016-06-02T01:04:04.049Z,78.1
2016-06-02T01:04:14.080Z,78.2
2016-06-02T01:04:24.189Z,78.1
2016-06-02T01:04:34.176Z,77.9
2016-06-02T01:04:44.160Z,77.8
2016-06-02T01:04:54.035Z,78.4
2016-06-02T01:05:04.176Z,78.5
2016-06-02T01:05:14.176Z,78
2016-06-02T01:05:24.191Z,77.9
2016-06-02T01:05:34.007Z,78.2
2016-06-02T01:05:44.194Z,78.1
2016-06-02T01:05:54.148Z,78
2016-06-02T01:06:04.179Z,78.1
2016-06-02T01:06:14.163Z,78.7
2016-06-02T01:06:24.148Z,78.5
2016-06-02T01:06:33.901Z,77.8
2016-06-02T01:06:43.994Z,78.3
2016-06-02T01:06:54.151Z,78.6
2016-06-02T01:07:04.026Z,78.4
2016-06-02T01:07:14.135Z,78.3
2016-06-02T01:07:23.994Z,78.1
2016-06-02T01:07:34.121Z,78.4
2016-06-02T01:07:44.059Z,77.8
2016-06-02T01:07:53.981Z,78.1
2016-06-02T01:08:04.121Z,77.7
2016-06-02T01:08:14.106Z,77.6
2016-06-02T01:08:24.121Z,78.2
2016-06-02T01:08:34.109Z,77.8
2016-06-02T01:08:44.124Z,77.6
2016-06-02T01:08:54.109Z,78.1
2016-06-02T01:09:04.124Z,78
2016-06-02T01:09:13.952Z,78.3
2016-06-02T01:09:24.781Z,78.1
2016-06-02T01:09:34.268Z,78.1
2016-06-02T01:09:44.018Z,78.1
2016-06-02T01:09:54.487Z,78.1
2016-06-02T01:10:04.127Z,77.8
2016-06-02T01:10:14.112Z,77.6
2016-06-02T01:10:24.362Z,77.7
2016-06-02T01:10:34.161Z,77.5
2016-06-02T01:10:44.832Z,77.8
2016-06-02T01:10:54.114Z,77.8
2016-06-02T01:11:04.082Z,77.6
2016-06-02T01:11:13.786Z,77.9
2016-06-02T01:11:24.067Z,77.8
2016-06-02T01:11:33.945Z,77.6
2016-06-02T01:11:44.070Z,76.9
2016-06-02T01:11:54.070Z,77.1
2016-06-02T01:12:03.929Z,77.3
2016-06-02T01:12:14.054Z,77.3
2016-06-02T01:12:23.945Z,77.2
2016-06-02T01:12:34.042Z,77.1
2016-06-02T01:12:43.901Z,77.1
2016-06-02T01:12:54.057Z,77.1
2016-06-02T01:13:03.917Z,77.1
2016-06-02T01:13:13.901Z,77.4
2016-06-02T01:13:23.917Z,78
2016-06-02T01:13:34.076Z,77.8
2016-06-02T01:13:44.076Z,77.4
2016-06-02T01:13:54.045Z,78
2016-06-02T01:14:04.107Z,77.8
2016-06-02T01:14:13.904Z,78.1
2016-06-02T01:14:24.029Z,77.8
2016-06-02T01:14:34.048Z,77.9
2016-06-02T01:14:44.063Z,78.1
2016-06-02T01:14:53.876Z,77.8
2016-06-02T01:15:04.016Z,77.9
2016-06-02T01:15:14.001Z,77.9
2016-06-02T01:15:24.032Z,78
2016-06-02T01:15:34.003Z,77.8
2016-06-02T01:15:44.018Z,77.6
2016-06-02T01:15:54.003Z,77.4
2016-06-02T01:16:04.003Z,77.2
2016-06-02T01:16:14.003Z,77.3
2016-06-02T01:16:24.003Z,76.9
2016-06-02T01:16:33.849Z,77.2
2016-06-02T01:16:44.006Z,77.2
2016-06-02T01:16:53.849Z,77.2
2016-06-02T01:17:04.006Z,77.2
2016-06-02T01:17:13.849Z,77.2
2016-06-02T01:17:24.037Z,76.9
2016-06-02T01:17:33.852Z,77.2
2016-06-02T01:17:43.993Z,77
2016-06-02T01:17:53.884Z,77.2
2016-06-02T01:18:03.993Z,77.3
2016-06-02T01:18:14.056Z,77.3
2016-06-02T01:18:23.962Z,77.2
2016-06-02T01:18:33.979Z,77.2
2016-06-02T01:18:43.995Z,77.2
2016-06-02T01:18:53.839Z,77.1
2016-06-02T01:19:03.964Z,77.1
2016-06-02T01:19:13.823Z,77.2
2016-06-02T01:19:23.964Z,77.2
2016-06-02T01:19:33.967Z,77.3
2016-06-02T01:19:43.967Z,77.2
2016-06-02T01:19:53.982Z,77.1
2016-06-02T01:20:03.889Z,77.2
2016-06-02T01:20:13.654Z,77.2
2016-06-02T01:20:23.842Z,77.2
2016-06-02T01:20:33.939Z,77.2
2016-06-02T01:20:43.985Z,77.1
2016-06-02T01:20:53.626Z,77.1
2016-06-02T01:21:03.939Z,77.2
2016-06-02T01:21:13.923Z,77.2
2016-06-02T01:21:23.923Z,77.3
2016-06-02T01:21:33.925Z,77.1
2016-06-02T01:21:43.925Z,77.2
2016-06-02T01:21:53.956Z,77.1
2016-06-02T01:22:03.800Z,77.4
2016-06-02T01:22:13.909Z,77.4
2016-06-02T01:22:23.909Z,77.1
2016-06-02T01:22:33.912Z,77.1
2016-06-02T01:22:43.912Z,77.5
2016-06-02T01:22:53.756Z,77.3
2016-06-02T01:23:03.897Z,77.1
2016-06-02T01:23:13.756Z,76.9
2016-06-02T01:23:23.850Z,76.8
2016-06-02T01:23:33.931Z,77
2016-06-02T01:23:43.837Z,77.1
2016-06-02T01:23:53.915Z,77.2
2016-06-02T01:24:03.759Z,76.7
2016-06-02T01:24:13.743Z,76.9
2016-06-02T01:24:23.884Z,77
2016-06-02T01:24:34.278Z,76.8
2016-06-02T01:24:44.403Z,77.2
2016-06-02T01:24:54.700Z,77.2
2016-06-02T01:25:04.590Z,77.2
2016-06-02T01:25:14.262Z,77.2
2016-06-02T01:25:24.715Z,77.2
2016-06-02T01:25:34.139Z,77.3
2016-06-02T01:25:43.420Z,77.2
2016-06-02T01:25:53.873Z,77.2
2016-06-02T01:26:03.873Z,77
2016-06-02T01:26:13.717Z,77.1
2016-06-02T01:26:23.858Z,76.9
2016-06-02T01:26:33.705Z,77.1
2016-06-02T01:26:43.861Z,77.1
2016-06-02T01:26:53.705Z,77.2
2016-06-02T01:27:03.767Z,77.1
2016-06-02T01:27:13.689Z,77.4
2016-06-02T01:27:23.830Z,77.2
2016-06-02T01:27:33.911Z,77.2
2016-06-02T01:27:43.833Z,77
2016-06-02T01:27:53.692Z,76.8
2016-06-02T01:28:03.848Z,77.1
2016-06-02T01:28:13.708Z,77.1
2016-06-02T01:28:23.817Z,77.3
2016-06-02T01:28:33.819Z,77
2016-06-02T01:28:43.850Z,76.9
2016-06-02T01:28:53.850Z,77
2016-06-02T01:29:03.663Z,76.6
2016-06-02T01:29:14.116Z,76.6
2016-06-02T01:29:23.710Z,76.6
2016-06-02T01:29:33.869Z,76.6
2016-06-02T01:29:43.822Z,76.7
2016-06-02T01:29:53.650Z,76.6
2016-06-02T01:30:03.713Z,76.7
2016-06-02T01:30:13.822Z,76.4
2016-06-02T01:30:23.697Z,75.8
2016-06-02T01:30:33.794Z,75.8
2016-06-02T01:30:43.778Z,75.9
2016-06-02T01:30:53.637Z,76
2016-06-02T01:31:03.794Z,76
2016-06-02T01:31:13.481Z,76
2016-06-02T01:31:23.809Z,75.7
2016-06-02T01:31:34.030Z,75.8
2016-06-02T01:31:43.796Z,75.9
2016-06-02T01:31:53.780Z,75.7
2016-06-02T01:32:03.483Z,75.7
2016-06-02T01:32:13.843Z,75.8
2016-06-02T01:32:23.811Z,75.8
2016-06-02T01:32:33.502Z,75.8
2016-06-02T01:32:43.674Z,76
2016-06-02T01:32:53.830Z,75.8
2016-06-02T01:33:03.767Z,76
2016-06-02T01:33:13.455Z,76
2016-06-02T01:33:23.767Z,76
2016-06-02T01:33:33.599Z,75.7
2016-06-02T01:33:43.599Z,75.9
2016-06-02T01:33:53.770Z,75.7
2016-06-02T01:34:03.614Z,75.6
2016-06-02T01:34:13.770Z,75.9
2016-06-02T01:34:23.739Z,75.9
2016-06-02T01:34:33.585Z,76
2016-06-02T01:34:43.741Z,75.7
2016-06-02T01:34:53.788Z,76
2016-06-02T01:35:03.741Z,76
2016-06-02T01:35:13.569Z,75.9
2016-06-02T01:35:23.710Z,75.9
2016-06-02T01:35:34.025Z,76.1
2016-06-02T01:35:43.619Z,75.9
2016-06-02T01:35:53.822Z,76
2016-06-02T01:36:03.588Z,75.8
2016-06-02T01:36:13.760Z,75.8
2016-06-02T01:36:23.713Z,75.9
2016-06-02T01:36:33.591Z,75.9
2016-06-02T01:36:43.716Z,75.7
2016-06-02T01:36:53.560Z,75.9
2016-06-02T01:37:03.700Z,75.9
2016-06-02T01:37:13.732Z,75.9
2016-06-02T01:37:23.591Z,76.1
2016-06-02T01:37:33.718Z,75.5
2016-06-02T01:37:43.702Z,76
2016-06-02T01:37:53.593Z,76.1
2016-06-02T01:38:03.687Z,75.8
2016-06-02T01:38:13.734Z,75.9
2016-06-02T01:38:23.702Z,75.5
2016-06-02T01:38:33.721Z,75.5
2016-06-02T01:38:43.580Z,75.3
2016-06-02T01:38:53.737Z,75.5
2016-06-02T01:39:03.690Z,75.9
2016-06-02T01:39:13.549Z,76
2016-06-02T01:39:24.158Z,75.7
2016-06-02T01:39:34.099Z,75.5
2016-06-02T01:39:43.521Z,75.4
2016-06-02T01:39:54.380Z,75.3
2016-06-02T01:40:03.474Z,75.5
2016-06-02T01:40:13.380Z,75.5
2016-06-02T01:40:23.505Z,75.9
2016-06-02T01:40:34.336Z,75.5
2016-06-02T01:40:43.852Z,75.5
2016-06-02T01:40:53.711Z,75.3
2016-06-02T01:41:03.649Z,75.3
2016-06-02T01:41:13.555Z,75.5
2016-06-02T01:41:23.664Z,75.8
2016-06-02T01:41:33.666Z,75.9
2016-06-02T01:41:43.651Z,75.5
2016-06-02T01:41:53.885Z,75.3
2016-06-02T01:42:03.495Z,75.4
2016-06-02T01:42:13.635Z,75.1
2016-06-02T01:42:23.635Z,75.1
2016-06-02T01:42:33.638Z,75.4
2016-06-02T01:42:43.654Z,75.1
2016-06-02T01:42:53.669Z,75.4
2016-06-02T01:43:03.638Z,75.5
2016-06-02T01:43:13.544Z,75.5
2016-06-02T01:43:23.638Z,75.5
2016-06-02T01:43:33.626Z,75.4
2016-06-02T01:43:43.501Z,75.3
2016-06-02T01:43:53.454Z,75.5
2016-06-02T01:44:03.329Z,75.3
2016-06-02T01:44:13.610Z,75.2
2016-06-02T01:44:23.501Z,75.3
2016-06-02T01:44:33.456Z,75.5
2016-06-02T01:44:43.596Z,75.3
2016-06-02T01:44:53.331Z,75.3
2016-06-02T01:45:03.581Z,75.2
2016-06-02T01:45:13.596Z,75.3
2016-06-02T01:45:23.581Z,75.5
2016-06-02T01:45:33.584Z,75.4
2016-06-02T01:45:43.584Z,75.3
2016-06-02T01:45:53.459Z,75.4
2016-06-02T01:46:03.568Z,75.3
2016-06-02T01:46:13.584Z,75.4
2016-06-02T01:46:23.568Z,75.3
2016-06-02T01:46:33.414Z,75.4
2016-06-02T01:46:43.570Z,75.5
2016-06-02T01:46:53.429Z,75.3
2016-06-02T01:47:03.476Z,75.2
2016-06-02T01:47:13.633Z,75.4
2016-06-02T01:47:23.570Z,75.6
2016-06-02T01:47:33.854Z,75.5
2016-06-02T01:47:43.573Z,75.5
2016-06-02T01:47:53.557Z,75.8
2016-06-02T01:48:03.464Z,76.1
2016-06-02T01:48:13.542Z,75.9
2016-06-02T01:48:23.245Z,75.4
2016-06-02T01:48:33.389Z,75.6
2016-06-02T01:48:43.545Z,75.6
2016-06-02T01:48:53.545Z,75.4
2016-06-02T01:49:03.560Z,75.4
2016-06-02T01:49:13.389Z,75.6
2016-06-02T01:49:23.357Z,75.4
2016-06-02T01:49:33.844Z,75.4
2016-06-02T01:49:43.562Z,75.4
2016-06-02T01:49:53.562Z,75.4
2016-06-02T01:50:03.531Z,75.5
2016-06-02T01:50:13.516Z,75.5
2016-06-02T01:50:23.516Z,75.4
2016-06-02T01:50:33.550Z,75.6
2016-06-02T01:50:43.534Z,75.5
2016-06-02T01:50:53.534Z,75.6
2016-06-02T01:51:03.503Z,75.6
2016-06-02T01:51:13.347Z,75.4
2016-06-02T01:51:23.362Z,75.5
2016-06-02T01:51:33.522Z,75.4
2016-06-02T01:51:43.506Z,75.5
2016-06-02T01:51:53.350Z,75.4
2016-06-02T01:52:03.365Z,75.6
2016-06-02T01:52:13.803Z,75.6
2016-06-02T01:52:23.365Z,75.5
2016-06-02T01:52:33.525Z,75.6
2016-06-02T01:52:43.509Z,75.6
2016-06-02T01:52:53.540Z,75.4
2016-06-02T01:53:03.493Z,75.6
2016-06-02T01:53:13.509Z,75.5
2016-06-02T01:53:23.478Z,75.3
2016-06-02T01:53:33.323Z,75.4
2016-06-02T01:53:43.480Z,75.5
2016-06-02T01:53:53.511Z,75.6
2016-06-02T01:54:03.480Z,75.2
2016-06-02T01:54:13.495Z,75.3
2016-06-02T01:54:23.464Z,75.3
2016-06-02T01:54:33.295Z,75.5
2016-06-02T01:54:44.514Z,75.5
2016-06-02T01:54:53.326Z,75.5
2016-06-02T01:55:03.576Z,75.4
2016-06-02T01:55:13.967Z,75.4
2016-06-02T01:55:24.264Z,75.5
2016-06-02T01:55:34.157Z,75.5
2016-06-02T01:55:43.547Z,75.5
2016-06-02T01:55:53.875Z,75.5
2016-06-02T01:56:03.438Z,75.5
2016-06-02T01:56:13.157Z,75.5
2016-06-02T01:56:23.453Z,75.5
2016-06-02T01:56:33.442Z,75.6
2016-06-02T01:56:43.301Z,75.5
2016-06-02T01:56:53.739Z,75.1
2016-06-02T01:57:03.426Z,75.4
2016-06-02T01:57:13.473Z,75.6
2016-06-02T01:57:23.426Z,75.4
2016-06-02T01:57:33.349Z,75
2016-06-02T01:57:43.255Z,75.5
2016-06-02T01:57:53.115Z,75.4
2016-06-02T01:58:03.396Z,75.3
2016-06-02T01:58:13.537Z,75.2
2016-06-02T01:58:23.115Z,75
2016-06-02T01:58:33.240Z,75.3
2016-06-02T01:58:43.244Z,75.4
2016-06-02T01:58:53.462Z,75.3
2016-06-02T01:59:03.384Z,75.3
2016-06-02T01:59:13.400Z,75.3
2016-06-02T01:59:23.228Z,75.5
2016-06-02T01:59:33.418Z,75.8
2016-06-02T01:59:43.386Z,75.5
2016-06-02T01:59:53.418Z,75.5
2016-06-02T02:00:03.230Z,75.6
2016-06-02T02:00:13.464Z,75.5
2016-06-02T02:00:23.402Z,75.5
2016-06-02T02:00:33.389Z,75.4
2016-06-02T02:00:43.061Z,75.4
2016-06-02T02:00:53.327Z,75.4
2016-06-02T02:01:03.358Z,75.5
2016-06-02T02:01:13.389Z,75.3
2016-06-02T02:01:23.342Z,75.2
2016-06-02T02:01:33.469Z,75.4
2016-06-02T02:01:43.344Z,75.6
2016-06-02T02:01:53.360Z,75.7
2016-06-02T02:02:03.344Z,75.6
2016-06-02T02:02:13.376Z,75.6
2016-06-02T02:02:23.360Z,75.4
2016-06-02T02:02:33.407Z,75.3
2016-06-02T02:02:43.347Z,75.4
2016-06-02T02:02:53.222Z,75.6
2016-06-02T02:03:03.207Z,75.5
2016-06-02T02:03:13.332Z,75.4
2016-06-02T02:03:23.332Z,75.8
2016-06-02T02:03:33.347Z,75.8
2016-06-02T02:03:43.335Z,75.5
2016-06-02T02:03:53.179Z,75.5
2016-06-02T02:04:03.319Z,75.4
2016-06-02T02:04:13.366Z,75.3
2016-06-02T02:04:23.319Z,75.1
2016-06-02T02:04:33.319Z,75.7
2016-06-02T02:04:43.166Z,75.2
2016-06-02T02:04:53.322Z,75.4
2016-06-02T02:05:03.307Z,75.3
2016-06-02T02:05:12.853Z,75.5
2016-06-02T02:05:23.307Z,75.1
2016-06-02T02:05:33.353Z,75.1
2016-06-02T02:05:43.152Z,75.5
2016-06-02T02:05:53.324Z,75.3
2016-06-02T02:06:03.324Z,75.1
2016-06-02T02:06:13.293Z,75.3
2016-06-02T02:06:23.277Z,75
2016-06-02T02:06:33.277Z,75.4
2016-06-02T02:06:43.280Z,75.4
2016-06-02T02:06:53.280Z,75.4
2016-06-02T02:07:03.280Z,75.4
2016-06-02T02:07:13.327Z,75.4
2016-06-02T02:07:23.124Z,75.3
2016-06-02T02:07:33.296Z,75.3
2016-06-02T02:07:42.985Z,75.3
2016-06-02T02:07:53.298Z,75.3
2016-06-02T02:08:03.110Z,75.1
2016-06-02T02:08:13.314Z,75.4
2016-06-02T02:08:23.251Z,75.3
2016-06-02T02:08:33.267Z,75.5
2016-06-02T02:08:43.271Z,75.1
2016-06-02T02:08:53.177Z,75.2
2016-06-02T02:09:03.099Z,75.6
2016-06-02T02:09:13.255Z,75.1
2016-06-02T02:09:23.239Z,75.5
2016-06-02T02:09:33.146Z,75.4
2016-06-02T02:09:43.883Z,75.5
2016-06-02T02:09:53.805Z,75.5
2016-06-02T02:10:03.102Z,75.9
2016-06-02T02:10:13.774Z,76
2016-06-02T02:10:23.789Z,75.9
2016-06-02T02:10:33.071Z,75.9
2016-06-02T02:10:43.885Z,76
2016-06-02T02:10:53.573Z,76.1
2016-06-02T02:11:03.229Z,75.9
2016-06-02T02:11:13.229Z,75.5
2016-06-02T02:11:23.213Z,75.7
2016-06-02T02:11:33.260Z,75.4
2016-06-02T02:11:43.232Z,75.6
2016-06-02T02:11:53.060Z,75.5
2016-06-02T02:12:03.216Z,76.1
2016-06-02T02:12:13.201Z,76
2016-06-02T02:12:23.029Z,75.4
2016-06-02T02:12:33.201Z,75.4
2016-06-02T02:12:43.063Z,75.4
2016-06-02T02:12:53.344Z,75.5
2016-06-02T02:13:03.204Z,75.3
2016-06-02T02:13:13.188Z,75.5
2016-06-02T02:13:23.188Z,75.2
2016-06-02T02:13:33.219Z,75.4
2016-06-02T02:13:43.190Z,75
2016-06-02T02:13:52.877Z,75.4
2016-06-02T02:14:02.893Z,75.4
2016-06-02T02:14:13.159Z,75.4
2016-06-02T02:14:23.174Z,75.6